Time;durP1;ratioP1;P1;durP2;ratioP2;P2;SDS_P1;SDS_P2;PMS_P1;PMS_P2;Temp;Humidity;BMP_temperature;BMP_pressure;BME280_temperature;BME280_humidity;BME280_pressure;Samples;Min_cycle;Max_cycle;Signal;HPM_P1;HPM_P2
2021/05/17 12:14:19;;;;;;;;;;;;;;;;;;5184525;27;19929;-64
2021/05/17 12:16:52;;;;;;;;;;;;;;;;;;5202719;28;19940;-64
2021/05/17 12:19:24;;;;;;;;;;;;;;;;;;5191255;28;19933;-66
2021/05/17 12:21:57;;;;;;;;;;;;;;;;;;5162846;28;19933;-67
2021/05/17 12:24:30;;;;;;;;;;;;;;;;;;5137583;28;19936;-64
2021/05/17 12:27:02;;;;;;;;;;;;;;;;;;5103512;28;68811;-54
2021/05/17 12:29:48;;;;;;;;;;;27.20;41.20;;;;;;5121439;28;20394;-63
2021/05/17 12:33:17;;;;;;;;;;;26.90;40.10;;;;;;5141625;27;19930;-65
2021/05/17 12:35:53;;;;;;;13.93;4.70;;;;;;;;;;5159293;28;20597;-62
2021/05/17 12:38:25;;;;;;;9.88;2.75;;;25.00;43.50;;;;;;5148431;28;20442;-63
2021/05/17 12:40:57;;;;;;;9.77;2.90;;;24.60;44.60;;;;;;5153073;28;20942;-63
2021/05/17 12:43:37;;;;;;;5.65;1.95;;;26.30;79.70;;;;;;5131512;28;20049;-58
2021/05/17 12:46:11;;;;;;;37.88;5.22;;;26.90;49.60;;;;;;5164305;28;20045;-60
2021/05/17 12:48:49;;;;;;;39.20;4.22;;;24.60;41.80;;;;;;5170687;28;20054;-60
2021/05/17 12:51:31;;;;;;;9.30;2.08;;;23.30;42.90;;;;;;5151269;28;20045;-57
2021/05/17 12:54:12;;;;;;;7.40;1.80;;;22.50;44.80;;;;;;5167957;28;20060;-58
2021/05/17 12:56:45;;;;;;;10.85;2.22;;;22.10;46.30;;;;;;5159411;28;20394;-59
2021/05/17 12:59:21;;;;;;;7.23;1.97;;;21.90;47.00;;;;;;5159470;28;20060;-59
2021/05/17 13:01:55;;;;;;;10.48;2.35;;;21.80;47.30;;;;;;5157897;28;20041;-60
2021/05/17 13:04:28;;;;;;;10.32;2.42;;;21.90;47.80;;;;;;5142711;28;20061;-59
2021/05/17 13:07:06;;;;;;;13.82;2.30;;;21.80;47.90;;;;;;5142711;28;20069;-58
2021/05/17 13:09:38;;;;;;;9.82;2.13;;;21.80;48.10;;;;;;5157214;28;20057;-58
2021/05/17 13:12:11;;;;;;;9.02;1.98;;;21.90;48.30;;;;;;5162304;28;20065;-60
2021/05/17 13:14:44;;;;;;;9.60;2.97;;;21.90;48.40;;;;;;5167154;28;20064;-58
2021/05/17 13:17:16;;;;;;;11.13;2.80;;;21.90;48.50;;;;;;5165501;28;20041;-59
2021/05/17 13:20:01;;;;;;;20.15;2.85;;;22.00;48.90;;;;;;5153266;28;20455;-57
2021/05/17 13:31:04;;;;;;;11.85;2.50;;;22.10;48.90;;;;;;5164092;28;20057;-58
2021/05/17 13:33:47;;;;;;;10.25;1.90;;;22.00;49.00;;;;;;5182852;28;20589;-58
2021/05/17 13:36:22;;;;;;;12.90;2.67;;;21.90;49.30;;;;;;5168856;28;20049;-57
2021/05/17 13:38:55;;;;;;;9.70;1.92;;;21.80;49.60;;;;;;5176934;28;20045;-58
2021/05/17 13:41:27;;;;;;;6.15;1.65;;;21.80;49.80;;;;;;5197730;28;20049;-58
2021/05/17 13:44:20;;;;;;;6.68;1.98;;;21.70;49.80;;;;;;5171153;28;20049;-58
2021/05/17 13:46:53;;;;;;;7.80;1.53;;;21.70;49.80;;;;;;5167643;28;20065;-58
2021/05/17 13:49:27;;;;;;;10.45;1.58;;;21.70;49.80;;;;;;5163043;28;20057;-58
2021/05/17 13:52:02;;;;;;;5.60;1.20;;;21.70;49.70;;;;;;5167821;28;20057;-58
2021/05/17 13:54:35;;;;;;;7.65;1.60;;;21.80;49.60;;;;;;5156327;28;20053;-59
2021/05/17 13:57:09;;;;;;;5.90;1.55;;;21.80;49.60;;;;;;5175109;28;20061;-59
2021/05/17 13:59:43;;;;;;;4.30;1.15;;;21.80;49.50;;;;;;5167410;28;20053;-59
2021/05/17 14:02:16;;;;;;;5.00;1.33;;;21.80;49.60;;;;;;5183616;28;20069;-59
2021/05/17 14:04:48;;;;;;;3.70;1.00;;;21.80;49.50;;;;;;5179518;28;20498;-59
2021/05/17 14:07:21;;;;;;;5.57;1.60;;;21.80;49.40;;;;;;5176614;28;20099;-59
2021/05/17 14:09:54;;;;;;;1.88;1.17;;;21.80;49.30;;;;;;5182289;28;20041;-59
2021/05/17 14:12:26;;;;;;;5.95;1.40;;;21.80;49.30;;;;;;5181220;28;20054;-59
2021/05/17 14:14:59;;;;;;;2.65;1.15;;;21.80;49.40;;;;;;5178986;28;20069;-58
2021/05/17 14:17:33;;;;;;;3.78;1.05;;;21.80;49.40;;;;;;5179223;28;20056;-59
2021/05/17 14:20:11;;;;;;;2.53;0.93;;;21.70;49.40;;;;;;5183990;28;20541;-58
2021/05/17 14:22:44;;;;;;;4.18;1.33;;;21.70;49.60;;;;;;5184262;28;20072;-59
2021/05/17 14:25:18;;;;;;;4.22;0.85;;;21.70;49.60;;;;;;5181603;28;20888;-58
2021/05/17 14:27:51;;;;;;;4.37;0.90;;;21.70;49.60;;;;;;5171902;28;20050;-58
2021/05/17 14:30:24;;;;;;;5.97;1.10;;;21.60;49.60;;;;;;5165246;28;20529;-59
2021/05/17 14:32:56;;;;;;;2.90;0.75;;;21.60;49.70;;;;;;5163596;28;20620;-58
2021/05/17 14:35:30;;;;;;;11.73;1.37;;;21.70;49.70;;;;;;5161774;28;20478;-57
2021/05/17 14:38:02;;;;;;;;;;;21.70;50.00;;;;;;5164545;28;20533;-57
2021/05/17 14:40:36;;;;;;;5.38;1.05;;;21.70;49.80;;;;;;5157906;28;20325;-60
2021/05/17 14:43:09;;;;;;;3.22;0.90;;;21.70;50.10;;;;;;5164145;28;20049;-60
2021/05/17 14:45:41;;;;;;;8.63;1.50;;;21.80;50.10;;;;;;5161753;28;20041;-59
2021/05/17 14:48:14;;;;;;;8.60;1.10;;;21.80;50.30;;;;;;5159971;28;20060;-58
2021/05/17 14:50:47;;;;;;;7.97;1.40;;;21.80;50.30;;;;;;5165417;28;20048;-59
2021/05/17 14:53:19;;;;;;;4.18;1.13;;;21.80;50.30;;;;;;5159846;28;20049;-60
2021/05/17 14:55:52;;;;;;;17.40;1.60;;;21.80;50.50;;;;;;5155203;28;20064;-59
2021/05/17 14:58:24;;;;;;;5.97;1.38;;;21.70;50.50;;;;;;5168173;28;20060;-62
2021/05/17 15:00:57;;;;;;;11.05;1.20;;;21.70;50.60;;;;;;5162419;28;20053;-62
2021/05/17 15:03:30;;;;;;;12.65;1.08;;;21.70;50.80;;;;;;5133490;28;20076;-62
2021/05/17 15:06:04;;;;;;;6.07;0.80;;;21.60;50.80;;;;;;5166752;28;20638;-61
2021/05/17 15:08:36;;;;;;;16.27;1.75;;;21.60;50.90;;;;;;5165840;28;20037;-61
2021/05/17 15:11:09;;;;;;;2.10;0.83;;;21.50;50.90;;;;;;5164970;28;20057;-61
2021/05/17 15:13:42;;;;;;;6.30;1.10;;;21.50;51.00;;;;;;5168489;28;20311;-60
2021/05/17 15:16:30;;;;;;;6.47;0.90;;;21.50;51.00;;;;;;5162242;28;20706;-61
2021/05/17 15:19:03;;;;;;;7.40;0.82;;;21.50;51.00;;;;;;5177681;28;20255;-61
2021/05/17 15:21:35;;;;;;;4.03;0.68;;;21.50;51.00;;;;;;5160566;28;20054;-61
2021/05/17 15:24:08;;;;;;;4.88;1.05;;;21.50;51.10;;;;;;5158441;28;22122;-61
2021/05/17 15:26:41;;;;;;;3.15;0.70;;;21.40;51.00;;;;;;5161718;28;20086;-61
2021/05/17 15:29:15;;;;;;;3.03;0.88;;;21.40;51.50;;;;;;5161360;28;20291;-61
2021/05/17 15:31:48;;;;;;;8.32;0.80;;;21.40;51.20;;;;;;5157823;28;20072;-61
2021/05/17 15:34:21;;;;;;;6.80;0.98;;;21.30;51.20;;;;;;5158598;28;20083;-61
2021/05/17 15:36:53;;;;;;;4.20;0.60;;;21.30;51.20;;;;;;5168761;28;20049;-60
2021/05/17 15:39:26;;;;;;;3.15;0.70;;;21.30;51.20;;;;;;5167052;28;20064;-60
2021/05/17 15:41:58;;;;;;;1.85;0.70;;;21.30;51.30;;;;;;5173001;28;20061;-61
2021/05/17 15:44:31;;;;;;;2.93;0.80;;;21.30;51.30;;;;;;5175227;28;20057;-60
2021/05/17 15:47:04;;;;;;;6.00;1.00;;;21.30;51.40;;;;;;5171061;28;20620;-60
2021/05/17 15:49:36;;;;;;;2.30;0.95;;;21.30;51.50;;;;;;5170521;28;20292;-60
2021/05/17 15:52:09;;;;;;;2.92;1.55;;;21.30;51.60;;;;;;5169713;28;20060;-60
2021/05/17 15:54:42;;;;;;;4.68;0.70;;;21.20;51.50;;;;;;5172913;28;20056;-60
2021/05/17 15:57:14;;;;;;;3.10;1.17;;;21.30;51.60;;;;;;5165613;28;20057;-60
2021/05/17 15:59:48;;;;;;;4.82;0.70;;;21.20;51.80;;;;;;5164542;28;20537;-60
2021/05/17 16:02:21;;;;;;;10.77;1.17;;;21.20;52.00;;;;;;5149133;28;20046;-58
2021/05/17 16:04:54;;;;;;;5.25;0.65;;;21.20;52.10;;;;;;5167059;28;20049;-57
2021/05/17 16:07:26;;;;;;;7.00;0.80;;;21.30;52.40;;;;;;5161481;28;20046;-57
2021/05/17 16:09:59;;;;;;;6.90;0.83;;;21.30;52.70;;;;;;5156825;28;20088;-57
2021/05/17 16:12:40;;;;;;;6.00;1.00;;;21.40;53.10;;;;;;5151743;28;20589;-56
2021/05/17 16:15:18;;;;;;;4.32;1.20;;;21.40;53.30;;;;;;5155251;28;20046;-57
2021/05/17 16:18:11;;;;;;;3.22;0.93;;;21.40;53.40;;;;;;5148308;28;20046;-59
2021/05/17 16:23:35;;;;;;;3.20;0.80;;;21.50;53.30;;;;;;5143960;28;20056;-56
2021/05/17 16:26:08;;;;;;;2.83;0.63;;;21.60;53.70;;;;;;5138241;28;20068;-57
2021/05/17 16:28:52;;;;;;;4.85;0.60;;;21.60;53.50;;;;;;5143989;28;20053;-56
2021/05/17 16:31:30;;;;;;;1.45;0.90;;;21.60;53.50;;;;;;5137627;28;20049;-57
2021/05/17 16:34:05;;;;;;;4.53;0.70;;;21.70;53.50;;;;;;5154895;28;20441;-57
2021/05/17 16:36:40;;;;;;;2.78;0.60;;;21.70;53.60;;;;;;5164083;28;20041;-51
2021/05/17 16:39:32;;;;;;;3.72;0.77;;;21.80;53.60;;;;;;5152378;28;20533;-56
2021/05/17 16:42:05;;;;;;;3.55;0.52;;;21.80;53.30;;;;;;5148856;28;20049;-56
2021/05/17 16:44:38;;;;;;;3.17;0.60;;;21.80;53.30;;;;;;5145742;28;20545;-58
2021/05/17 16:47:10;;;;;;;2.90;0.77;;;21.70;53.40;;;;;;5133060;28;20510;-54
2021/05/17 16:49:43;;;;;;;4.40;0.70;;;21.60;53.30;;;;;;5131651;28;20064;-58
2021/05/17 16:52:16;;;;;;;4.18;1.23;;;21.60;53.40;;;;;;5145403;28;20307;-57
2021/05/17 16:54:49;;;;;;;6.40;0.77;;;21.60;53.30;;;;;;5136460;28;20042;-56
2021/05/17 16:57:22;;;;;;;7.45;0.77;;;21.50;53.20;;;;;;5135433;28;20346;-52
2021/05/17 16:59:57;;;;;;;4.40;1.00;;;21.50;53.20;;;;;;5141242;28;20053;-55
2021/05/17 17:02:29;;;;;;;4.72;1.00;;;21.50;53.20;;;;;;5142578;28;20057;-56
2021/05/17 17:05:03;;;;;;;3.22;0.63;;;21.40;53.20;;;;;;5138742;28;20061;-55
2021/05/17 17:07:39;;;;;;;;;;;21.40;53.20;;;;;;5133856;28;20054;-54
2021/05/17 17:10:12;;;;;;;2.70;0.80;;;21.40;53.20;;;;;;5139474;28;19933;-57
2021/05/17 17:12:49;;;;;;;3.22;0.88;;;21.40;53.40;;;;;;5132130;28;20050;-55
2021/05/17 17:15:22;;;;;;;4.07;1.13;;;21.40;53.30;;;;;;5151273;28;20482;-58
2021/05/17 17:17:55;;;;;;;2.72;0.80;;;21.40;53.20;;;;;;5146263;28;20341;-55
2021/05/17 17:20:27;;;;;;;2.95;0.70;;;21.40;53.10;;;;;;5155944;28;20044;-55
2021/05/17 17:23:00;;;;;;;2.75;0.70;;;21.40;53.10;;;;;;5151489;28;20074;-55
2021/05/17 17:25:32;;;;;;;2.58;0.63;;;21.50;53.10;;;;;;5142207;28;20689;-57
2021/05/17 17:28:05;;;;;;;0.73;0.57;;;21.50;53.00;;;;;;5148376;28;20050;-54
2021/05/17 17:30:38;;;;;;;4.43;0.83;;;21.50;53.00;;;;;;4457479;28;9999830;-54
2021/05/17 17:33:11;;;;;;;3.15;0.88;;;21.50;53.00;;;;;;5140959;28;20057;-55
2021/05/17 17:35:44;;;;;;;3.10;1.15;;;21.50;53.10;;;;;;5146395;28;20061;-57
2021/05/17 17:38:16;;;;;;;3.47;0.70;;;21.50;53.00;;;;;;5152493;28;20060;-54
2021/05/17 17:40:49;;;;;;;4.65;0.80;;;21.60;53.10;;;;;;5143883;28;20123;-57
2021/05/17 17:43:26;;;;;;;5.93;0.80;;;21.60;53.10;;;;;;5152318;28;20248;-56
2021/05/17 17:45:59;;;;;;;8.52;1.08;;;21.60;53.30;;;;;;5156443;28;20038;-56
2021/05/17 17:48:35;;;;;;;4.75;0.80;;;21.60;53.20;;;;;;5149634;28;20038;-56
2021/05/17 17:51:08;;;;;;;3.22;0.80;;;21.60;53.20;;;;;;5159419;28;20057;-57
2021/05/17 17:53:40;;;;;;;4.32;0.77;;;21.60;53.20;;;;;;5151239;28;20395;-54
2021/05/17 17:56:14;;;;;;;2.25;0.60;;;21.60;53.10;;;;;;5147721;28;20344;-56
2021/05/17 17:58:47;;;;;;;4.90;0.97;;;21.60;53.10;;;;;;5151772;28;20054;-54
2021/05/17 18:01:19;;;;;;;4.80;0.80;;;21.60;53.20;;;;;;5139787;28;20074;-56
2021/05/17 18:03:53;;;;;;;3.57;0.70;;;21.60;53.20;;;;;;5165012;28;20061;-56
2021/05/17 18:06:27;;;;;;;2.95;0.80;;;21.60;53.10;;;;;;5156458;28;20049;-56
2021/05/17 18:09:05;;;;;;;5.75;0.80;;;21.60;53.20;;;;;;5139767;28;20053;-59
2021/05/17 18:11:37;;;;;;;2.17;0.60;;;21.70;53.30;;;;;;5161042;28;20646;-59
2021/05/17 18:14:10;;;;;;;7.32;0.75;;;21.70;53.10;;;;;;5148468;28;23044;-57
2021/05/17 18:16:44;;;;;;;4.95;0.82;;;21.70;53.00;;;;;;5162544;28;20100;-58
2021/05/17 18:19:17;;;;;;;3.65;0.77;;;21.80;53.00;;;;;;5160867;28;20500;-60
2021/05/17 18:21:49;;;;;;;2.17;0.70;;;21.80;52.90;;;;;;5160426;28;20172;-60
2021/05/17 18:24:22;;;;;;;5.05;0.90;;;21.80;52.80;;;;;;5146733;28;20418;-57
2021/05/17 18:26:55;;;;;;;6.97;0.73;;;21.80;52.80;;;;;;5176369;28;20068;-56
2021/05/17 18:29:30;;;;;;;5.65;0.60;;;21.90;52.90;;;;;;5170439;28;20422;-58
2021/05/17 18:37:36;;;;;;;5.13;0.57;;;21.90;52.80;;;;;;5129806;28;20061;-58
2021/05/17 18:40:09;;;;;;;2.67;0.68;;;22.00;53.60;;;;;;5149758;28;20050;-56
2021/05/17 18:42:44;;;;;;;5.13;1.40;;;21.90;53.00;;;;;;4778023;28;9999997;-59
2021/05/17 18:45:29;;;;;;;3.63;0.52;;;21.90;52.90;;;;;;5138709;28;20499;-52
2021/05/17 18:48:02;;;;;;;2.70;0.65;;;21.90;53.00;;;;;;5132049;28;20062;-55
2021/05/17 18:50:35;;;;;;;;;;;22.00;53.10;;;;;;5111456;28;20050;-59
2021/05/17 18:53:08;;;;;;;1.52;0.50;;;21.90;53.00;;;;;;5114857;28;20219;-56
2021/05/17 18:55:43;;;;;;;1.63;0.50;;;21.90;53.20;;;;;;5082861;28;20407;-52
2021/05/17 18:58:16;;;;;;;2.17;0.57;;;21.80;53.40;;;;;;5131705;28;20042;-58
2021/05/17 19:00:49;;;;;;;2.90;0.73;;;21.80;53.40;;;;;;5122237;28;20735;-58
2021/05/17 19:03:22;;;;;;;;;;;21.80;53.40;;;;;;5121439;28;20050;-57
2021/05/17 19:05:54;;;;;;;2.85;0.70;;;21.80;53.50;;;;;;5116239;28;20417;-56
2021/05/17 19:08:27;;;;;;;4.32;0.63;;;21.80;53.50;;;;;;5127872;28;20062;-58
2021/05/17 19:11:00;;;;;;;3.78;0.70;;;21.70;53.40;;;;;;5106031;28;20518;-56
2021/05/17 19:13:36;;;;;;;6.82;0.70;;;21.70;53.40;;;;;;5125345;28;21018;-54
2021/05/17 19:16:11;;;;;;;1.77;0.73;;;21.70;53.40;;;;;;5124202;28;20530;-56
2021/05/17 19:18:43;;;;;;;4.28;0.88;;;21.70;53.40;;;;;;5121381;28;20050;-57
2021/05/17 19:21:17;;;;;;;6.75;1.10;;;21.70;53.40;;;;;;5114559;28;20054;-57
2021/05/17 19:23:50;;;;;;;3.80;0.75;;;21.70;53.40;;;;;;5105801;28;20046;-57
2021/05/17 19:26:25;;;;;;;7.93;1.35;;;21.70;53.40;;;;;;5118559;28;20059;-56
2021/05/17 19:29:01;;;;;;;8.32;0.98;;;21.70;53.50;;;;;;5116368;28;20471;-57
2021/05/17 19:31:33;;;;;;;4.65;0.70;;;21.60;53.60;;;;;;5130986;28;20076;-56
2021/05/17 19:34:06;;;;;;;7.88;1.60;;;21.70;53.60;;;;;;5132096;28;20050;-56
2021/05/17 19:36:39;;;;;;;4.90;0.70;;;21.70;53.50;;;;;;5103512;28;20057;-57
2021/05/17 19:39:12;;;;;;;5.87;1.10;;;21.80;53.50;;;;;;5123668;28;20510;-53
2021/05/17 19:41:45;;;;;;;4.70;0.57;;;;;;;;;;5113109;28;20518;-49
2021/05/17 19:44:17;;;;;;;2.97;0.80;;;21.80;53.40;;;;;;5094695;28;20054;-49
2021/05/17 19:46:50;;;;;;;5.30;0.80;;;21.60;54.30;;;;;;5108436;28;20930;-53
2021/05/17 19:49:23;;;;;;;11.43;1.58;;;21.60;54.30;;;;;;5111665;28;20785;-52
2021/05/17 19:51:56;;;;;;;9.48;0.98;;;21.50;54.60;;;;;;5104714;28;20046;-51
2021/05/17 19:54:29;;;;;;;;;;;21.50;54.50;;;;;;4753819;28;10000419;-53
2021/05/17 19:57:01;;;;;;;9.27;1.00;;;21.40;54.70;;;;;;5078644;28;19925;-49
2021/05/17 19:59:35;;;;;;;8.87;1.53;;;21.40;55.00;;;;;;5116523;28;20595;-49
2021/05/17 20:02:08;;;;;;;13.73;1.27;;;21.40;54.70;;;;;;5107743;28;20248;-51
2021/05/17 20:04:41;;;;;;;9.27;1.10;;;21.50;54.60;;;;;;5124322;28;20582;-52
2021/05/17 20:07:14;;;;;;;9.23;0.80;;;21.50;54.80;;;;;;5124809;28;20058;-49
2021/05/17 20:09:47;;;;;;;10.35;1.58;;;21.50;54.80;;;;;;5104781;28;20522;-60
2021/05/17 20:12:20;;;;;;;12.25;1.60;;;21.50;54.90;;;;;;5117852;28;21615;-60
2021/05/17 20:14:52;;;;;;;7.93;1.73;;;21.50;55.00;;;;;;5116895;28;20055;-59
2021/05/17 20:17:25;;;;;;;13.35;1.80;;;21.50;55.20;;;;;;5127091;28;20418;-60
2021/05/17 20:19:58;;;;;;;12.65;2.50;;;21.50;54.80;;;;;;5095102;28;20676;-60
2021/05/17 20:22:31;;;;;;;26.80;2.90;;;21.50;55.10;;;;;;5113082;28;20057;-51
2021/05/17 20:25:05;;;;;;;14.07;2.30;;;21.80;54.70;;;;;;5127564;28;20526;-48
2021/05/17 20:27:38;;;;;;;16.30;1.85;;;21.80;54.80;;;;;;5129002;28;20050;-47
2021/05/17 20:30:13;;;;;;;16.30;2.07;;;21.70;55.50;;;;;;5097179;28;20525;-48
2021/05/17 20:32:46;;;;;;;18.77;2.70;;;21.60;54.80;;;;;;5111198;28;20054;-48
2021/05/17 20:38:09;;;;;;;13.15;1.58;;;21.60;54.60;;;;;;5127615;28;20050;-47
2021/05/17 20:40:42;;;;;;;9.82;1.70;;;21.60;54.60;;;;;;5129252;28;20054;-51
2021/05/17 20:43:18;;;;;;;11.47;1.27;;;21.50;54.60;;;;;;5129209;28;20709;-45
2021/05/17 20:45:51;;;;;;;9.13;1.20;;;21.60;54.60;;;;;;5124640;28;20317;-50
2021/05/17 20:48:24;;;;;;;19.05;1.17;;;21.50;54.60;;;;;;5130144;28;20046;-47
2021/05/17 20:50:56;;;;;;;9.20;1.15;;;21.50;54.70;;;;;;5128490;28;20424;-49
2021/05/17 20:53:29;;;;;;;7.30;1.00;;;21.50;54.60;;;;;;5132243;28;20061;-50
2021/05/17 20:56:02;;;;;;;12.15;1.30;;;21.50;54.60;;;;;;5120267;28;20069;-49
2021/05/17 20:58:35;;;;;;;6.68;0.90;;;21.50;54.60;;;;;;5132244;28;20069;-47
2021/05/17 21:01:07;;;;;;;5.82;1.00;;;21.50;54.60;;;;;;5140249;28;20057;-48
2021/05/17 21:03:40;;;;;;;6.88;1.48;;;21.50;54.60;;;;;;5134850;28;20637;-50
2021/05/17 21:06:13;;;;;;;6.10;1.08;;;21.50;54.60;;;;;;5139773;28;20058;-52
2021/05/17 21:08:45;;;;;;;3.80;0.80;;;21.40;54.50;;;;;;5136919;28;20050;-46
2021/05/17 21:11:18;;;;;;;5.28;1.05;;;21.40;54.40;;;;;;5134279;28;20054;-50
2021/05/17 21:13:51;;;;;;;5.75;1.15;;;21.40;54.40;;;;;;5141463;28;20065;-47
2021/05/17 21:16:23;;;;;;;3.33;1.00;;;21.40;54.40;;;;;;5123838;28;20502;-46
2021/05/17 21:18:56;;;;;;;4.13;1.10;;;21.40;54.40;;;;;;5124073;28;20054;-50
2021/05/17 21:21:29;;;;;;;5.13;1.17;;;21.40;54.40;;;;;;5143377;28;20054;-48
2021/05/17 21:24:02;;;;;;;4.87;1.10;;;21.40;54.40;;;;;;5112310;28;21142;-49
2021/05/17 21:26:35;;;;;;;4.47;0.90;;;21.40;54.30;;;;;;5132575;28;20317;-48
2021/05/17 21:29:09;;;;;;;5.32;1.45;;;21.40;54.40;;;;;;5131512;28;20427;-48
2021/05/17 21:31:42;;;;;;;6.38;1.33;;;21.30;54.20;;;;;;5130886;28;20054;-49
2021/05/17 21:34:15;;;;;;;9.23;0.73;;;21.40;54.30;;;;;;5137244;28;20065;-50
2021/05/17 21:36:48;;;;;;;2.80;0.87;;;21.40;54.30;;;;;;5131243;28;20051;-48
2021/05/17 21:39:20;;;;;;;11.43;1.30;;;21.30;54.30;;;;;;5135723;28;20073;-49
2021/05/17 21:41:53;;;;;;;6.82;0.80;;;21.30;54.50;;;;;;5114504;28;20054;-48
2021/05/17 21:44:26;;;;;;;5.60;0.80;;;21.30;54.50;;;;;;5132602;28;20061;-47
2021/05/17 21:46:59;;;;;;;4.95;0.90;;;21.30;54.50;;;;;;5109684;28;20042;-48
2021/05/17 21:49:31;;;;;;;4.25;1.00;;;21.30;54.40;;;;;;5135108;28;20058;-54
2021/05/17 21:52:04;;;;;;;5.82;0.60;;;21.30;54.40;;;;;;5130004;28;20533;-50
2021/05/17 21:54:51;;;;;;;11.50;0.90;;;21.30;54.30;;;;;;4603550;28;10000732;-48
2021/05/17 21:57:24;;;;;;;5.57;0.60;;;21.30;54.40;;;;;;5137527;28;20267;-50
2021/05/17 21:59:56;;;;;;;4.50;0.60;;;21.30;54.40;;;;;;5130503;28;20499;-49
2021/05/17 22:02:29;;;;;;;3.60;0.80;;;21.30;54.30;;;;;;5134303;28;20074;-52
2021/05/17 22:05:01;;;;;;;3.15;0.93;;;21.30;54.40;;;;;;5133945;28;20058;-50
2021/05/17 22:10:25;;;;;;;3.15;0.70;;;21.30;54.30;;;;;;5128461;28;20499;-52
2021/05/17 22:12:58;;;;;;;2.35;0.70;;;21.20;54.20;;;;;;5120586;28;20054;-49
2021/05/17 22:15:37;;;;;;;3.40;0.68;;;21.30;54.30;;;;;;5123436;28;20072;-50
2021/05/17 22:18:09;;;;;;;2.53;0.90;;;21.20;54.20;;;;;;5100357;28;21209;-49
2021/05/17 22:20:42;;;;;;;6.28;1.10;;;21.20;54.20;;;;;;5122063;28;20519;-47
2021/05/17 22:23:17;;;;;;;3.08;0.90;;;21.20;54.30;;;;;;5100419;28;20065;-48
2021/05/17 22:25:50;;;;;;;2.58;0.70;;;21.20;54.30;;;;;;5116313;28;20050;-51
2021/05/17 22:28:23;;;;;;;5.43;0.80;;;21.20;54.30;;;;;;5103180;28;20065;-51
2021/05/17 22:30:56;;;;;;;2.15;0.90;;;21.20;54.30;;;;;;5117228;28;20449;-48
2021/05/17 22:33:30;;;;;;;1.73;0.60;;;21.20;54.20;;;;;;5112899;28;20602;-48
2021/05/17 22:36:04;;;;;;;2.67;0.68;;;21.20;54.40;;;;;;5115782;28;20058;-49
2021/05/17 22:38:36;;;;;;;1.77;0.50;;;21.20;54.30;;;;;;5112565;28;20062;-51
2021/05/17 22:41:09;;;;;;;2.23;0.83;;;21.20;54.30;;;;;;5113121;28;20062;-48
2021/05/17 22:43:42;;;;;;;2.37;0.77;;;21.20;54.30;;;;;;5114625;28;20041;-48
2021/05/17 22:46:15;;;;;;;2.28;0.80;;;21.20;54.20;;;;;;5112146;28;20309;-53
2021/05/17 22:48:53;;;;;;;4.40;0.60;;;21.20;54.30;;;;;;5100106;28;20163;-51
2021/05/17 22:51:29;;;;;;;3.50;0.90;;;21.20;54.30;;;;;;5112613;28;20166;-50
2021/05/17 22:54:04;;;;;;;2.72;0.80;;;21.10;54.50;;;;;;5101232;28;20047;-52
2021/05/17 22:56:36;;;;;;;4.85;0.50;;;21.10;54.30;;;;;;5119185;28;20059;-50
2021/05/17 22:59:09;;;;;;;1.83;0.60;;;21.10;54.30;;;;;;5117188;28;20061;-51
2021/05/17 23:01:42;;;;;;;1.55;0.60;;;21.20;54.40;;;;;;5106073;28;20050;-48
2021/05/17 23:04:14;;;;;;;2.22;0.73;;;21.10;54.30;;;;;;5118474;28;20058;-46
2021/05/17 23:06:47;;;;;;;1.50;0.70;;;21.10;54.30;;;;;;5119729;28;20042;-51
2021/05/17 23:09:20;;;;;;;3.08;0.52;;;21.20;54.40;;;;;;5106082;28;20061;-47
2021/05/17 23:11:52;;;;;;;2.67;0.60;;;21.10;54.20;;;;;;5106456;28;20050;-48
2021/05/17 23:14:25;;;;;;;2.45;0.40;;;21.10;54.20;;;;;;5105159;28;20062;-50
2021/05/17 23:16:57;;;;;;;4.43;0.60;;;21.10;54.30;;;;;;5108123;28;20058;-48
2021/05/17 23:19:30;;;;;;;3.25;0.60;;;21.10;54.30;;;;;;5116644;28;20053;-49
2021/05/17 23:22:11;;;;;;;2.85;0.50;;;21.10;54.40;;;;;;5122685;28;20070;-50
2021/05/17 23:30:14;;;;;;;4.00;0.75;;;21.10;54.30;;;;;;5117503;28;20058;-52
2021/05/17 23:32:46;;;;;;;4.75;0.65;;;21.10;54.20;;;;;;5116778;28;20058;-50
2021/05/17 23:35:19;;;;;;;0.80;0.50;;;21.10;54.20;;;;;;5119736;28;20054;-50
2021/05/17 23:37:52;;;;;;;1.80;0.50;;;21.00;54.10;;;;;;5121532;28;20065;-50
2021/05/17 23:40:30;;;;;;;1.02;0.55;;;21.10;54.20;;;;;;5124746;28;20058;-48
2021/05/17 23:43:03;;;;;;;3.75;0.70;;;21.10;54.30;;;;;;5104937;28;20054;-48
2021/05/17 23:45:35;;;;;;;3.90;0.63;;;21.00;54.10;;;;;;5113449;28;20383;-51
2021/05/17 23:48:08;;;;;;;0.83;0.40;;;21.00;54.10;;;;;;5120500;28;20069;-49
2021/05/17 23:50:41;;;;;;;2.13;0.63;;;21.10;54.20;;;;;;5099117;28;20312;-47
2021/05/17 23:53:14;;;;;;;6.90;0.93;;;21.00;54.10;;;;;;5124389;28;20093;-55
2021/05/17 23:55:47;;;;;;;1.03;0.43;;;21.00;54.20;;;;;;5123820;28;20369;-50
2021/05/17 23:58:20;;;;;;;5.95;0.60;;;21.00;54.10;;;;;;5115002;28;20054;-49
